ADDS TAF Board INFO
 
 

IDs: Format: Expanded Condensed

KCLT - Charlotte/Douglas In, NC, US

Issued at 0536 UTC 23 Aug 2014
Time0652Z23/08Z23/09Z23/10Z23/11Z23/12Z23/13Z23/14Z23/15Z23/16Z23/17Z23/18Z23/19Z23/20Z
TypeOBSPRVLPRVLPRVLPRVLPRVLPRVLPRVLPRVLPRVLPRVLPRVLPRVLPRVL
Vis10>6>6>6>6>6>6>6>6>6>6>6>6>6
Cig250160250250250250250250250120120120120120
CoverOVCOVCBKNBKNBKNBKNBKNBKNBKNBKNBKNBKNBKNBKN
FltCat--VFRVFRVFRVFRVFRVFRVFRVFRVFRVFRVFRVFRVFR
Wx----------------------------
WDir35050101010101010102020202020
WSpd35333333355555
WGst----------------------------
R05/23
XWnd3-0222222222222
HWnd25222222244444
R18/36
XWnd-04111111122222
HWnd-3-3-3-3-3-3-3-3-3-5-5-5-5-5
Raw TAF
KCLT 230536Z 2306/2406 05005KT P6SM SCT060 BKN160 OVC250
  FM230900 01003KT P6SM SCT150 BKN250
  FM231600 02005KT P6SM SCT050 BKN120
  FM240000 04006KT P6SM BKN050
  PROB30 2400/2406 4SM TSRA BKN040CB


Raw METAR
KCLT 230652Z 35003KT 10SM FEW060 SCT160 OVC250 23/22 A2996 RMK AO2 SLP135 T02330217

TAF Board Legend

Hazard Green Yellow Red Magenta
Visibility (sm) >5 >2.99 >0.99 <=0.99
Ceiling (100 ft) >30 >9.99 >4.99 <=4.99
Wind Speed (kt) <10 <20 <30 >=30
Wind Gust (kt) <10 <20 <30 >=30
Weather No Wx Reported Light precipitation Moderate precipitation Heavy precipitation
Flight Category VFR MVFR IFR LIFR

Page loaded:  07:29 UTC  |   12:29 AM Pacific  |   01:29 AM Mountain  |   02:29 AM Central  |   03:29 AM Eastern

 

ADVISORIES

FORECASTS

FORECASTS

OBSERVATIONS

USER TOOLS

ABOUT US